createdAt,value
2022-11-29T00:00:04.680Z,83.52
2022-11-29T00:02:40.300Z,83.48
2022-11-29T00:05:07.965Z,82.91
2022-11-29T00:07:37.569Z,83.02
2022-11-29T00:10:07.597Z,82.53
2022-11-29T00:12:34.699Z,82.97
2022-11-29T00:15:04.521Z,82.52
2022-11-29T00:17:34.878Z,82.81
2022-11-29T00:20:05.646Z,82.49
2022-11-29T00:22:34.236Z,82.85
2022-11-29T00:25:03.952Z,83.37
2022-11-29T00:27:31.074Z,82.53
2022-11-29T00:30:00.741Z,83.58
2022-11-29T00:32:37.862Z,83.93
2022-11-29T00:35:09.677Z,84.20
2022-11-29T00:37:37.696Z,83.41
2022-11-29T00:40:06.352Z,82.94
2022-11-29T00:42:33.579Z,84.07
2022-11-29T00:45:00.868Z,83.25
2022-11-29T00:47:30.410Z,83.20
2022-11-29T00:49:58.350Z,83.92
2022-11-29T00:52:27.988Z,83.87
2022-11-29T00:54:58.274Z,84.71
2022-11-29T00:57:26.528Z,83.66
2022-11-29T00:59:54.452Z,83.51
2022-11-29T01:02:23.612Z,84.17
2022-11-29T01:04:53.553Z,84.40
2022-11-29T01:07:20.614Z,84.06
2022-11-29T01:09:51.357Z,83.67
2022-11-29T01:12:21.583Z,84.72
2022-11-29T01:14:49.790Z,84.09
2022-11-29T01:17:22.823Z,83.40
2022-11-29T01:19:51.150Z,83.95
2022-11-29T01:22:23.078Z,84.09
2022-11-29T01:24:51.608Z,84.31
2022-11-29T01:27:19.409Z,84.47
2022-11-29T01:29:54.025Z,84.44
2022-11-29T01:32:22.028Z,84.93
2022-11-29T01:34:49.318Z,84.19
2022-11-29T01:37:19.435Z,84.84
2022-11-29T01:39:46.607Z,84.03
2022-11-29T01:42:14.761Z,83.89
2022-11-29T01:44:46.053Z,83.81
2022-11-29T01:47:13.511Z,84.01
2022-11-29T01:49:47.677Z,83.11
2022-11-29T01:52:20.388Z,83.73
2022-11-29T01:54:54.067Z,83.75
2022-11-29T01:57:22.720Z,84.63
2022-11-29T01:59:55.486Z,85.32
2022-11-29T02:02:46.909Z,86.10
2022-11-29T02:05:17.421Z,85.30
2022-11-29T02:07:49.951Z,86.03
2022-11-29T02:10:21.665Z,84.76
2022-11-29T02:13:15.715Z,84.52
2022-11-29T02:15:58.231Z,84.72
2022-11-29T02:18:34.761Z,84.72
2022-11-29T02:21:27.660Z,84.59
2022-11-29T02:24:30.090Z,84.51
2022-11-29T02:27:36.123Z,83.24
2022-11-29T02:30:48.654Z,84.51
2022-11-29T02:33:52.068Z,83.79
2022-11-29T02:37:00.490Z,84.50
2022-11-29T02:39:54.246Z,84.29
2022-11-29T02:42:27.396Z,83.40
2022-11-29T02:45:08.930Z,83.60
2022-11-29T02:47:49.760Z,84.94
2022-11-29T02:50:35.734Z,85.29
2022-11-29T02:53:34.252Z,84.94
2022-11-29T02:56:45.783Z,85.41
2022-11-29T02:59:45.783Z,84.83
2022-11-29T03:02:36.028Z,84.67
2022-11-29T03:05:24.662Z,84.30
2022-11-29T03:08:13.982Z,83.40
2022-11-29T03:11:12.909Z,83.67
2022-11-29T03:14:14.928Z,82.75
2022-11-29T03:17:26.090Z,83.31
2022-11-29T03:20:28.052Z,82.89
2022-11-29T03:23:00.902Z,81.67
2022-11-29T03:25:44.954Z,82.12
2022-11-29T03:28:20.043Z,80.86
2022-11-29T03:31:07.655Z,81.72
2022-11-29T03:34:09.059Z,81.61
2022-11-29T03:36:55.778Z,82.68
2022-11-29T03:39:33.407Z,83.49
2022-11-29T03:42:08.840Z,83.55
2022-11-29T03:45:08.980Z,82.56
2022-11-29T03:47:49.217Z,83.18
2022-11-29T03:50:35.735Z,82.54
2022-11-29T03:53:28.829Z,82.04
2022-11-29T03:56:21.620Z,83.17
2022-11-29T03:59:23.746Z,82.02
2022-11-29T04:02:19.227Z,83.07
2022-11-29T04:04:59.365Z,82.98
2022-11-29T04:08:01.088Z,83.84
2022-11-29T04:11:01.661Z,83.83
2022-11-29T04:13:57.776Z,83.49
2022-11-29T04:16:52.390Z,85.87
2022-11-29T04:19:42.708Z,85.07
2022-11-29T04:22:30.860Z,85.35
2022-11-29T04:25:25.928Z,85.45
2022-11-29T04:28:26.659Z,84.56
2022-11-29T04:31:08.392Z,84.00
2022-11-29T04:33:57.534Z,84.22
2022-11-29T04:36:33.654Z,84.25
2022-11-29T04:39:05.224Z,83.85
2022-11-29T04:41:40.780Z,83.23
2022-11-29T04:44:27.089Z,82.64
2022-11-29T04:47:24.601Z,84.05
2022-11-29T04:50:33.416Z,83.65
2022-11-29T04:53:25.715Z,86.00
2022-11-29T04:56:09.355Z,84.62
2022-11-29T04:58:49.400Z,84.90
2022-11-29T05:01:55.820Z,84.34
2022-11-29T05:04:54.749Z,84.76
2022-11-29T05:07:57.126Z,83.82
2022-11-29T05:11:01.156Z,82.48
2022-11-29T05:13:37.905Z,83.44
2022-11-29T05:16:23.744Z,82.87
2022-11-29T05:19:25.214Z,84.37
2022-11-29T05:22:32.066Z,82.97
2022-11-29T05:25:34.551Z,82.38
2022-11-29T05:28:12.291Z,83.50
2022-11-29T05:31:03.118Z,82.79
2022-11-29T05:33:57.844Z,82.21
2022-11-29T05:36:45.580Z,82.02
2022-11-29T05:39:30.579Z,82.62
2022-11-29T05:42:03.644Z,82.68
2022-11-29T05:44:44.596Z,83.75
2022-11-29T05:47:26.887Z,84.25
2022-11-29T05:50:20.210Z,84.30
2022-11-29T05:53:18.576Z,84.41
2022-11-29T05:56:03.794Z,84.39
2022-11-29T05:59:06.998Z,84.80
2022-11-29T06:01:38.473Z,84.34
2022-11-29T06:04:32.232Z,84.62
2022-11-29T06:07:22.392Z,84.74
2022-11-29T06:10:11.425Z,85.59
2022-11-29T06:12:44.489Z,85.98
2022-11-29T06:15:25.333Z,85.46
2022-11-29T06:18:38.860Z,85.38
2022-11-29T06:21:34.645Z,85.17
2022-11-29T06:24:30.121Z,85.76
2022-11-29T06:27:19.899Z,85.04
2022-11-29T06:30:10.859Z,85.63
2022-11-29T06:33:00.321Z,86.00
2022-11-29T06:35:49.894Z,84.91
2022-11-29T06:38:28.719Z,85.83
2022-11-29T06:41:02.329Z,85.59
2022-11-29T06:43:34.734Z,84.83
2022-11-29T06:46:28.663Z,85.83
2022-11-29T06:49:13.920Z,86.19
2022-11-29T06:52:07.339Z,86.23
2022-11-29T06:54:54.849Z,86.34
2022-11-29T06:57:48.624Z,86.18
2022-11-29T07:00:39.046Z,85.42
2022-11-29T07:03:27.804Z,84.96
2022-11-29T07:06:21.327Z,84.71
2022-11-29T07:08:59.741Z,85.68
2022-11-29T07:11:28.754Z,86.09
2022-11-29T07:13:59.317Z,85.62
2022-11-29T07:17:02.894Z,85.41
2022-11-29T07:20:04.750Z,84.91
2022-11-29T07:23:02.086Z,84.88
2022-11-29T07:25:38.181Z,85.76
2022-11-29T07:31:33.472Z,84.89
2022-11-29T07:34:44.403Z,84.29
2022-11-29T07:37:58.106Z,84.73
2022-11-29T07:40:42.717Z,84.99
2022-11-29T07:43:26.256Z,84.69
2022-11-29T07:46:12.934Z,85.25
2022-11-29T07:48:40.297Z,85.29
2022-11-29T07:51:12.937Z,84.98
2022-11-29T07:53:48.360Z,84.61
2022-11-29T07:56:21.436Z,84.65
2022-11-29T07:59:16.954Z,84.57
2022-11-29T08:01:47.805Z,84.56
2022-11-29T08:04:19.976Z,84.61
2022-11-29T08:10:39.824Z,86.73
2022-11-29T08:13:09.800Z,86.38
2022-11-29T08:18:44.925Z,86.61
2022-11-29T08:21:20.550Z,86.53
2022-11-29T08:23:50.202Z,86.96
2022-11-29T08:26:31.912Z,86.84
2022-11-29T08:29:06.356Z,87.37
2022-11-29T08:31:37.687Z,86.86
2022-11-29T08:34:14.832Z,86.90
2022-11-29T08:36:55.393Z,86.78
2022-11-29T08:39:31.682Z,85.71
2022-11-29T08:42:02.980Z,86.01
2022-11-29T08:44:31.715Z,86.73
2022-11-29T08:47:23.788Z,86.49
2022-11-29T08:50:03.395Z,86.74
2022-11-29T08:53:25.013Z,85.80
2022-11-29T08:56:41.636Z,86.15
2022-11-29T08:59:01.693Z,85.81
2022-11-29T09:01:42.945Z,85.09
2022-11-29T09:07:14.237Z,85.53
2022-11-29T09:09:53.890Z,85.71
2022-11-29T09:12:31.913Z,85.57
2022-11-29T09:14:59.503Z,86.88
2022-11-29T09:17:30.259Z,84.96
2022-11-29T09:20:00.211Z,85.20
2022-11-29T09:22:31.250Z,86.07
2022-11-29T09:25:00.703Z,86.47
2022-11-29T09:27:39.129Z,85.48
2022-11-29T09:30:09.599Z,86.23
2022-11-29T09:32:45.956Z,87.29
2022-11-29T09:35:19.319Z,87.52
2022-11-29T09:37:49.167Z,86.98
2022-11-29T09:40:25.241Z,86.63
2022-11-29T09:43:21.050Z,86.96
2022-11-29T09:45:57.869Z,87.41
2022-11-29T09:48:29.862Z,88.27
2022-11-29T09:54:27.903Z,88.12
2022-11-29T09:56:59.374Z,88.89
2022-11-29T09:59:48.902Z,88.30
2022-11-29T10:02:38.471Z,87.77
2022-11-29T10:05:23.958Z,88.38
2022-11-29T10:08:23.711Z,88.46
2022-11-29T10:11:28.436Z,88.07
2022-11-29T10:14:28.990Z,89.79
2022-11-29T10:17:22.425Z,90.14
2022-11-29T10:19:58.703Z,89.72
2022-11-29T10:22:54.162Z,89.05
2022-11-29T10:25:52.256Z,89.31
2022-11-29T10:28:27.122Z,89.11
2022-11-29T10:31:19.913Z,88.87
2022-11-29T10:33:54.160Z,90.05
2022-11-29T10:36:32.538Z,89.84
2022-11-29T10:39:23.525Z,89.65
2022-11-29T10:41:58.566Z,89.69
2022-11-29T10:44:36.462Z,89.61
2022-11-29T10:49:58.954Z,87.62
2022-11-29T10:52:32.365Z,87.88
2022-11-29T10:55:05.171Z,87.74
2022-11-29T10:57:45.322Z,86.88
2022-11-29T11:00:26.085Z,87.34
2022-11-29T11:07:36.973Z,87.49
2022-11-29T11:10:28.960Z,86.90
2022-11-29T11:16:31.630Z,87.46
2022-11-29T11:23:26.973Z,86.78
2022-11-29T11:26:17.516Z,86.76
2022-11-29T11:32:26.698Z,87.66
2022-11-29T11:35:08.633Z,87.54
2022-11-29T11:37:36.676Z,88.55
2022-11-29T11:40:29.802Z,87.80
2022-11-29T11:43:04.506Z,87.63
2022-11-29T11:52:50.671Z,88.75
2022-11-29T11:55:58.917Z,89.16
2022-11-29T11:58:33.314Z,88.66
2022-11-29T12:01:32.557Z,87.61
2022-11-29T12:04:39.763Z,88.10
2022-11-29T12:07:45.188Z,88.81
2022-11-29T12:10:47.643Z,88.13
2022-11-29T12:21:24.847Z,88.87
2022-11-29T12:24:32.715Z,88.46
2022-11-29T12:27:07.073Z,88.81
2022-11-29T12:33:33.814Z,88.67
2022-11-29T12:36:07.558Z,88.81
2022-11-29T12:39:11.374Z,88.79
2022-11-29T12:45:33.844Z,88.62
2022-11-29T12:48:36.670Z,88.89
2022-11-29T12:51:28.547Z,89.00
2022-11-29T12:54:11.094Z,88.71
2022-11-29T12:57:12.224Z,88.79
2022-11-29T13:00:04.096Z,89.85
2022-11-29T13:02:52.156Z,89.54
2022-11-29T13:06:16.645Z,89.23
2022-11-29T13:09:14.250Z,89.37
2022-11-29T13:12:15.175Z,90.66
2022-11-29T13:15:01.322Z,89.72
2022-11-29T13:17:51.207Z,89.30
2022-11-29T13:21:00.853Z,89.53
2022-11-29T13:24:06.923Z,89.29
2022-11-29T13:26:35.302Z,90.69
2022-11-29T13:29:11.311Z,90.27
2022-11-29T13:31:45.447Z,89.75
2022-11-29T13:34:47.936Z,89.39
2022-11-29T13:37:32.061Z,89.71
2022-11-29T13:40:47.669Z,90.04
2022-11-29T13:44:00.287Z,90.38
2022-11-29T13:46:55.098Z,89.98
2022-11-29T13:49:57.377Z,91.02
2022-11-29T13:52:52.975Z,90.88
2022-11-29T13:55:31.491Z,90.74
2022-11-29T13:58:17.531Z,91.14
2022-11-29T14:00:51.270Z,90.73
2022-11-29T14:03:27.347Z,90.97
2022-11-29T14:06:13.591Z,90.90
2022-11-29T14:09:21.769Z,90.96
2022-11-29T14:11:59.696Z,91.13
2022-11-29T14:14:58.467Z,90.77
2022-11-29T14:17:49.902Z,90.93
2022-11-29T14:20:28.191Z,91.16
2022-11-29T14:23:06.054Z,90.61
2022-11-29T14:26:06.039Z,90.62
2022-11-29T14:28:48.915Z,91.92
2022-11-29T14:31:57.858Z,91.49
2022-11-29T14:34:38.276Z,90.89
2022-11-29T14:37:38.634Z,91.87
2022-11-29T14:40:23.023Z,91.44
2022-11-29T14:42:53.690Z,91.81
2022-11-29T14:45:28.024Z,91.34
2022-11-29T14:47:59.482Z,90.87
2022-11-29T14:50:47.785Z,91.33
2022-11-29T14:53:34.847Z,91.20
2022-11-29T14:56:32.048Z,91.63
2022-11-29T14:59:39.673Z,91.07
2022-11-29T15:02:45.586Z,91.83
2022-11-29T15:05:28.133Z,91.81
2022-11-29T15:08:36.174Z,91.97
2022-11-29T15:11:36.383Z,91.40
2022-11-29T15:17:34.678Z,91.41
2022-11-29T15:24:26.847Z,91.65
2022-11-29T15:27:21.830Z,92.43
2022-11-29T15:29:55.938Z,92.43
2022-11-29T15:32:40.894Z,92.66
2022-11-29T15:35:19.006Z,92.23
2022-11-29T15:37:51.313Z,93.11
2022-11-29T15:40:30.710Z,93.13
2022-11-29T15:43:23.707Z,92.67
2022-11-29T15:46:00.874Z,92.82
2022-11-29T15:48:39.734Z,92.33
2022-11-29T15:51:31.681Z,92.33
2022-11-29T15:54:36.919Z,92.98
2022-11-29T15:57:43.282Z,91.77
2022-11-29T16:03:08.077Z,91.45
2022-11-29T16:05:42.324Z,92.33
2022-11-29T16:08:21.296Z,92.50
2022-11-29T16:10:57.902Z,91.92
2022-11-29T16:13:45.782Z,92.37
2022-11-29T16:16:24.613Z,91.93
2022-11-29T16:18:56.656Z,92.28
2022-11-29T16:21:30.966Z,92.17
2022-11-29T16:24:16.881Z,92.67
2022-11-29T16:26:53.099Z,92.81
2022-11-29T16:29:28.920Z,91.10
2022-11-29T16:31:57.471Z,91.18
2022-11-29T16:34:44.918Z,91.32
2022-11-29T16:37:31.792Z,91.50
2022-11-29T16:40:20.899Z,91.97
2022-11-29T16:43:07.164Z,92.88
2022-11-29T16:46:27.616Z,93.09
2022-11-29T16:49:00.093Z,92.03
2022-11-29T16:51:49.108Z,92.20
2022-11-29T16:54:32.471Z,92.70
2022-11-29T16:57:05.001Z,93.25
2022-11-29T16:59:40.646Z,92.83
2022-11-29T17:02:12.694Z,92.65
2022-11-29T17:04:40.761Z,91.74
2022-11-29T17:07:14.557Z,93.53
2022-11-29T17:09:43.594Z,91.80
2022-11-29T17:12:44.845Z,93.20
2022-11-29T17:15:22.942Z,92.76
2022-11-29T17:17:52.167Z,93.17
2022-11-29T17:20:30.464Z,92.24
2022-11-29T17:23:01.870Z,92.58
2022-11-29T17:25:29.473Z,92.13
2022-11-29T17:28:01.319Z,92.17
2022-11-29T17:30:34.396Z,91.98
2022-11-29T17:33:02.620Z,92.38
2022-11-29T17:35:35.597Z,91.73
2022-11-29T17:38:03.031Z,92.40
2022-11-29T17:40:39.367Z,91.53
2022-11-29T17:43:12.421Z,91.38
2022-11-29T17:45:44.952Z,91.52
2022-11-29T17:48:14.243Z,91.99
2022-11-29T17:50:42.962Z,91.32
2022-11-29T17:59:39.303Z,92.88
2022-11-29T18:02:09.112Z,93.66
2022-11-29T18:04:39.430Z,92.75
2022-11-29T18:07:08.891Z,93.23
2022-11-29T18:09:40.658Z,93.43
2022-11-29T18:12:15.415Z,92.74
2022-11-29T18:14:43.345Z,92.49
2022-11-29T18:17:13.621Z,93.19
2022-11-29T18:19:48.650Z,93.81
2022-11-29T18:22:15.857Z,93.78
2022-11-29T18:24:46.150Z,93.81
2022-11-29T18:27:21.922Z,93.43
2022-11-29T18:30:01.934Z,92.77
2022-11-29T18:35:52.880Z,90.83
2022-11-29T18:41:21.587Z,91.45
2022-11-29T18:46:48.696Z,90.89
2022-11-29T18:52:40.592Z,90.55
2022-11-29T18:55:11.089Z,90.00
2022-11-29T18:57:42.796Z,90.71
2022-11-29T19:00:18.941Z,89.72
2022-11-29T19:02:50.173Z,90.41
2022-11-29T19:05:18.988Z,89.72
2022-11-29T19:07:48.616Z,89.84
2022-11-29T19:10:16.425Z,91.08
2022-11-29T19:12:45.546Z,90.77
2022-11-29T19:15:15.294Z,90.38
2022-11-29T19:17:45.352Z,90.71
2022-11-29T19:20:20.817Z,90.14
2022-11-29T19:22:51.646Z,91.13
2022-11-29T19:25:28.445Z,90.51
2022-11-29T19:27:57.937Z,90.47
2022-11-29T19:30:25.150Z,90.21
2022-11-29T19:32:57.535Z,90.64
2022-11-29T19:35:27.026Z,91.41
2022-11-29T19:37:55.711Z,89.41
2022-11-29T19:40:25.582Z,89.26
2022-11-29T19:43:02.903Z,90.18
2022-11-29T19:45:43.070Z,90.33
2022-11-29T19:48:21.789Z,89.41
2022-11-29T19:59:17.484Z,89.98
2022-11-29T20:16:23.128Z,90.84
2022-11-29T20:22:31.957Z,90.99
2022-11-29T20:27:48.361Z,90.74
2022-11-29T20:30:24.156Z,90.21
2022-11-29T20:32:56.687Z,90.80
2022-11-29T20:59:03.608Z,90.13
2022-11-29T21:01:43.733Z,91.02
2022-11-29T21:04:20.171Z,90.79
2022-11-29T21:10:01.152Z,90.48
2022-11-29T21:13:08.163Z,90.37
2022-11-29T21:15:46.305Z,89.17
2022-11-29T21:24:57.596Z,90.21
2022-11-29T21:43:08.102Z,91.85
2022-11-29T21:45:40.032Z,91.90
2022-11-29T21:48:28.308Z,92.33
2022-11-29T21:50:56.941Z,92.47
2022-11-29T21:53:40.388Z,92.75
2022-11-29T21:56:19.522Z,91.97
2022-11-29T22:01:35.621Z,92.02
2022-11-29T22:04:25.361Z,91.59
2022-11-29T22:06:58.534Z,91.46
2022-11-29T22:09:31.316Z,90.48
2022-11-29T22:12:19.532Z,90.86
2022-11-29T22:14:51.502Z,90.55
2022-11-29T22:17:19.370Z,90.36
2022-11-29T22:19:49.960Z,90.20
2022-11-29T22:22:19.187Z,90.53
2022-11-29T22:24:47.565Z,90.59
2022-11-29T22:27:19.534Z,90.86
2022-11-29T22:29:59.343Z,90.33
2022-11-29T22:32:31.995Z,89.31
2022-11-29T22:35:01.031Z,90.38
2022-11-29T22:37:32.278Z,89.45
2022-11-29T22:40:07.588Z,90.48
2022-11-29T22:42:41.556Z,90.48
2022-11-29T22:45:17.782Z,89.78
2022-11-29T22:53:26.795Z,89.52
2022-11-29T22:56:07.141Z,90.31
2022-11-29T22:58:40.949Z,89.89
2022-11-29T23:01:42.235Z,89.44
2022-11-29T23:04:13.225Z,90.81
2022-11-29T23:06:47.570Z,89.64
2022-11-29T23:09:20.552Z,89.80
2022-11-29T23:11:59.107Z,89.87
2022-11-29T23:14:28.059Z,89.62
2022-11-29T23:16:55.664Z,90.10
2022-11-29T23:19:23.097Z,90.28
2022-11-29T23:21:53.411Z,89.85
2022-11-29T23:24:23.077Z,90.00
2022-11-29T23:26:52.089Z,90.08
2022-11-29T23:29:21.277Z,90.04
2022-11-29T23:31:48.543Z,91.08
2022-11-29T23:34:16.183Z,90.73
2022-11-29T23:36:51.179Z,90.43
2022-11-29T23:39:22.943Z,91.16
2022-11-29T23:44:38.501Z,92.03
2022-11-29T23:47:08.975Z,92.90
2022-11-29T23:49:43.086Z,92.71
2022-11-29T23:52:15.828Z,92.79
2022-11-29T23:54:43.044Z,93.37
2022-11-29T23:57:13.361Z,93.24
2022-11-29T23:59:44.517Z,92.39
